Time;durP1;ratioP1;P1;durP2;ratioP2;P2;SDS_P1;SDS_P2;PMS_P1;PMS_P2;Temp;Humidity;BMP_temperature;BMP_pressure;BME280_temperature;BME280_humidity;BME280_pressure;Samples;Min_cycle;Max_cycle;Signal;HPM_P1;HPM_P2
2022/08/02 00:00:19;;;;;;;0.17;0.10;;;12.10;99.90;;;;;;5132791;28;20039;-86
2022/08/02 00:02:46;;;;;;;0.10;0.10;;;12.10;99.90;;;;;;5131850;28;20156;-85
2022/08/02 00:05:13;;;;;;;0.22;0.22;;;12.10;99.90;;;;;;5132539;28;20046;-89
2022/08/02 00:07:40;;;;;;;0.10;0.10;;;12.10;99.90;;;;;;5132680;28;20130;-89
2022/08/02 00:10:09;;;;;;;0.15;0.15;;;12.10;99.90;;;;;;5132648;28;20090;-86
2022/08/02 00:12:37;;;;;;;0.10;0.10;;;12.10;99.90;;;;;;5132209;28;20118;-89
2022/08/02 00:15:06;;;;;;;0.10;0.10;;;12.10;99.90;;;;;;5149289;28;20097;-89
2022/08/02 00:17:33;;;;;;;0.70;0.30;;;12.10;99.90;;;;;;5167292;27;20035;-85
2022/08/02 00:20:01;;;;;;;0.05;0.05;;;12.10;99.90;;;;;;5149185;28;20131;-85
2022/08/02 00:22:27;;;;;;;0.20;0.20;;;12.00;99.90;;;;;;5166825;27;20062;-86
2022/08/02 00:24:57;;;;;;;0.30;0.20;;;12.10;99.90;;;;;;5132173;28;20052;-88
2022/08/02 00:27:24;;;;;;;0.38;0.35;;;12.10;99.90;;;;;;5166220;27;20422;-85
2022/08/02 00:29:51;;;;;;;0.30;0.15;;;12.10;99.90;;;;;;5148681;28;20473;-86
2022/08/02 00:32:17;;;;;;;0.40;0.30;;;12.00;99.90;;;;;;5148957;28;20043;-86
2022/08/02 00:34:44;;;;;;;0.40;0.25;;;12.10;99.90;;;;;;5131652;28;20455;-88
2022/08/02 00:37:11;;;;;;;0.28;0.28;;;12.10;99.90;;;;;;5166208;27;20039;-86
2022/08/02 00:39:37;;;;;;;0.20;0.20;;;12.00;99.90;;;;;;5131941;28;20496;-85
2022/08/02 00:42:04;;;;;;;0.47;0.30;;;12.10;99.90;;;;;;5131640;28;20036;-85
2022/08/02 00:44:31;;;;;;;0.28;0.20;;;12.10;99.90;;;;;;5166325;27;20391;-85
2022/08/02 00:46:57;;;;;;;0.00;0.00;;;12.10;99.90;;;;;;5148190;28;20059;-89
2022/08/02 00:49:24;;;;;;;0.47;0.32;;;12.10;99.90;;;;;;5131735;28;20097;-89
2022/08/02 00:51:51;;;;;;;0.65;0.30;;;12.10;99.90;;;;;;5148482;28;20457;-88
2022/08/02 00:54:18;;;;;;;0.57;0.30;;;12.00;99.90;;;;;;5131683;28;20050;-88
2022/08/02 00:56:45;;;;;;;0.52;0.22;;;12.00;99.90;;;;;;5148355;28;20046;-88
2022/08/02 00:59:11;;;;;;;0.20;0.10;;;12.00;99.90;;;;;;5148756;28;20044;-89
2022/08/02 01:01:38;;;;;;;0.25;0.20;;;12.00;99.90;;;;;;5131443;28;20126;-85
2022/08/02 01:04:07;;;;;;;0.03;0.03;;;12.00;99.90;;;;;;5165080;27;20059;-85
2022/08/02 01:06:34;;;;;;;0.10;0.10;;;12.00;99.90;;;;;;5131163;28;20040;-85
2022/08/02 01:09:02;;;;;;;0.38;0.25;;;12.00;99.90;;;;;;5131199;28;20039;-89
2022/08/02 01:11:30;;;;;;;0.65;0.40;;;11.90;99.90;;;;;;5148489;28;20122;-88
2022/08/02 01:14:09;;;;;;;0.20;0.20;;;11.90;99.90;;;;;;5131348;28;20039;-86
2022/08/02 01:16:42;;;;;;;0.47;0.25;;;11.90;99.90;;;;;;5131472;28;20036;-86
2022/08/02 01:19:56;;;;;;;0.22;0.22;;;11.80;99.90;;;;;;5131303;28;20061;-85
2022/08/02 01:23:07;;;;;;;0.20;0.10;;;11.80;99.90;;;;;;5114738;28;20517;-85
2022/08/02 01:25:36;;;;;;;0.30;0.10;;;11.80;99.90;;;;;;5131584;28;20046;-85
2022/08/02 01:28:21;;;;;;;0.45;0.20;;;11.70;99.90;;;;;;5147685;28;20483;-88
2022/08/02 01:30:54;;;;;;;0.47;0.30;;;11.70;99.90;;;;;;5165079;27;20081;-85
2022/08/02 01:33:23;;;;;;;0.10;0.10;;;11.70;99.90;;;;;;5130894;28;20031;-89
2022/08/02 01:35:53;;;;;;;0.10;0.10;;;11.70;99.90;;;;;;5131244;28;20531;-85
2022/08/02 01:38:38;;;;;;;0.20;0.20;;;11.70;99.90;;;;;;5130483;28;20507;-88
2022/08/02 01:41:08;;;;;;;0.23;0.23;;;11.70;99.90;;;;;;5147915;28;20047;-85
2022/08/02 01:43:39;;;;;;;0.20;0.20;;;11.70;99.90;;;;;;5130961;28;20047;-88
2022/08/02 01:46:07;;;;;;;0.00;0.00;;;11.60;99.90;;;;;;5130254;28;20496;-89
2022/08/02 01:48:34;;;;;;;0.20;0.20;;;11.60;99.90;;;;;;5130580;28;20050;-86
2022/08/02 01:51:02;;;;;;;0.45;0.30;;;11.60;99.90;;;;;;5164063;27;20042;-86
2022/08/02 01:53:30;;;;;;;0.10;0.10;;;11.60;99.90;;;;;;5130776;28;20117;-85
2022/08/02 01:55:58;;;;;;;0.13;0.13;;;11.60;99.90;;;;;;5147304;28;20040;-85
2022/08/02 01:58:33;;;;;;;0.13;0.13;;;11.60;99.90;;;;;;5147516;28;20039;-85
2022/08/02 02:01:00;;;;;;;0.28;0.17;;;11.50;99.90;;;;;;5129850;28;20188;-89
2022/08/02 02:03:30;;;;;;;0.25;0.25;;;11.50;99.90;;;;;;5130201;28;20051;-86
2022/08/02 02:06:00;;;;;;;0.13;0.13;;;11.50;99.90;;;;;;5130477;28;20050;-85
2022/08/02 02:08:32;;;;;;;0.20;0.17;;;11.50;99.90;;;;;;5130138;28;20047;-85
2022/08/02 02:11:00;;;;;;;0.30;0.20;;;11.40;99.90;;;;;;5129715;28;20044;-88
2022/08/02 02:13:28;;;;;;;0.15;0.13;;;11.40;99.90;;;;;;5164565;27;20050;-88
2022/08/02 02:15:57;;;;;;;0.10;0.10;;;11.40;99.90;;;;;;5147084;28;20067;-85
2022/08/02 02:18:26;;;;;;;0.17;0.10;;;11.40;99.90;;;;;;5146285;28;20400;-86
2022/08/02 02:20:53;;;;;;;0.30;0.28;;;11.40;99.90;;;;;;5163547;27;20120;-85
2022/08/02 02:23:20;;;;;;;0.10;0.10;;;11.40;99.90;;;;;;5163857;27;20043;-85
2022/08/02 02:25:47;;;;;;;0.15;0.15;;;11.40;99.90;;;;;;5130073;28;20043;-85
2022/08/02 02:28:27;;;;;;;0.17;0.17;;;11.50;99.90;;;;;;5146762;28;20035;-88
2022/08/02 02:31:00;;;;;;;0.10;0.10;;;11.40;99.90;;;;;;5147094;28;20108;-88
2022/08/02 02:33:30;;;;;;;0.20;0.20;;;11.50;99.90;;;;;;5130069;28;20154;-85
2022/08/02 02:35:58;;;;;;;0.47;0.30;;;11.50;99.90;;;;;;5129573;28;20041;-89
2022/08/02 02:38:29;;;;;;;0.20;0.20;;;11.50;99.90;;;;;;5146642;28;20093;-89
2022/08/02 02:40:59;;;;;;;0.30;0.28;;;11.50;99.90;;;;;;5146909;28;20218;-85
2022/08/02 02:43:29;;;;;;;0.10;0.10;;;11.50;99.90;;;;;;5129396;28;20126;-89
2022/08/02 02:45:56;;;;;;;0.20;0.20;;;11.50;99.90;;;;;;5129486;28;20056;-88
2022/08/02 02:48:25;;;;;;;0.25;0.25;;;11.60;99.90;;;;;;5146851;28;20097;-89
2022/08/02 02:50:53;;;;;;;0.43;0.22;;;11.50;99.90;;;;;;5129851;28;20065;-89
2022/08/02 02:53:21;;;;;;;0.22;0.22;;;11.60;99.90;;;;;;5146675;28;20438;-89
2022/08/02 02:55:48;;;;;;;0.10;0.10;;;11.60;99.90;;;;;;5146318;28;20032;-90
2022/08/02 02:58:16;;;;;;;0.13;0.13;;;11.60;99.90;;;;;;5145780;28;20035;-85
2022/08/02 03:03:30;;;;;;;0.20;0.20;;;11.60;99.90;;;;;;5180708;27;20043;-86
2022/08/02 03:05:56;;;;;;;0.52;0.40;;;11.70;99.90;;;;;;5146278;28;20047;-88
2022/08/02 03:08:23;;;;;;;0.22;0.20;;;11.70;99.90;;;;;;5146461;28;20116;-89
2022/08/02 03:10:50;;;;;;;0.10;0.10;;;11.60;99.90;;;;;;5146207;28;20044;-85
2022/08/02 03:13:18;;;;;;;0.20;0.20;;;11.60;99.90;;;;;;5129743;28;20039;-88
2022/08/02 03:15:46;;;;;;;0.10;0.10;;;11.60;99.90;;;;;;5146171;28;20092;-85
2022/08/02 03:18:32;;;;;;;0.28;0.20;;;11.60;99.90;;;;;;5146281;28;20050;-85
2022/08/02 03:21:05;;;;;;;1.00;0.30;;;11.50;99.90;;;;;;5163224;28;20504;-88
2022/08/02 03:23:33;;;;;;;0.22;0.20;;;11.50;99.90;;;;;;5129536;28;20130;-85
2022/08/02 03:26:00;;;;;;;0.20;0.20;;;11.60;99.90;;;;;;5129760;28;20071;-89
2022/08/02 03:28:27;;;;;;;0.10;0.10;;;11.50;99.90;;;;;;5145610;28;20039;-85
2022/08/02 03:30:54;;;;;;;0.43;0.22;;;11.50;99.90;;;;;;5128974;28;20113;-85
2022/08/02 03:33:22;;;;;;;0.47;0.30;;;11.60;99.90;;;;;;5165952;27;20119;-85
2022/08/02 03:35:51;;;;;;;0.25;0.25;;;11.60;99.90;;;;;;5149604;28;20076;-85
2022/08/02 03:38:20;;;;;;;0.10;0.10;;;11.60;99.90;;;;;;5148860;28;20044;-85
2022/08/02 03:40:48;;;;;;;0.63;0.40;;;11.60;99.90;;;;;;5149843;28;20140;-88
2022/08/02 03:43:16;;;;;;;0.85;0.50;;;11.60;99.90;;;;;;5132494;28;20606;-88
2022/08/02 03:45:46;;;;;;;0.10;0.10;;;11.60;99.90;;;;;;5149702;28;20047;-85
2022/08/02 03:48:17;;;;;;;1.27;0.30;;;11.50;99.90;;;;;;5132764;28;20046;-88
2022/08/02 03:50:47;;;;;;;0.32;0.30;;;11.60;99.90;;;;;;5150264;28;20056;-89
2022/08/02 03:53:16;;;;;;;0.20;0.20;;;11.60;99.90;;;;;;5149886;28;20067;-86
2022/08/02 03:55:43;;;;;;;0.17;0.17;;;11.60;99.90;;;;;;5150410;28;20046;-85
2022/08/02 03:58:19;;;;;;;0.55;0.20;;;11.60;99.90;;;;;;5133139;28;20078;-89
2022/08/02 04:00:46;;;;;;;0.20;0.20;;;11.50;99.90;;;;;;5167208;27;20039;-88
2022/08/02 04:03:14;;;;;;;0.20;0.20;;;11.50;99.90;;;;;;5150061;28;20071;-85
2022/08/02 04:05:41;;;;;;;0.32;0.30;;;11.50;99.90;;;;;;5132994;28;20488;-88
2022/08/02 04:08:07;;;;;;;0.10;0.10;;;11.60;99.90;;;;;;5150613;28;20047;-88
2022/08/02 04:11:29;;;;;;;0.40;0.20;;;11.60;99.90;;;;;;5149616;28;20047;-88
2022/08/02 04:13:24;;;;;;;0.15;0.15;;;11.60;99.90;;;;;;5163653;27;20045;-86
2022/08/02 04:15:57;;;;;;;0.22;0.17;;;11.60;99.90;;;;;;5166501;27;20039;-85
2022/08/02 04:18:31;;;;;;;0.20;0.20;;;11.60;99.90;;;;;;5132738;28;20066;-86
2022/08/02 04:21:01;;;;;;;0.52;0.30;;;11.60;99.90;;;;;;5166859;27;20285;-85
2022/08/02 04:23:30;;;;;;;0.43;0.20;;;11.60;99.90;;;;;;5149168;28;20131;-86
2022/08/02 04:25:59;;;;;;;0.28;0.20;;;11.70;99.90;;;;;;5132957;28;20075;-88
2022/08/02 04:28:27;;;;;;;0.20;0.20;;;11.70;99.90;;;;;;5149726;28;20507;-85
2022/08/02 04:30:55;;;;;;;0.43;0.22;;;11.80;99.90;;;;;;5148756;28;20037;-88
2022/08/02 04:33:22;;;;;;;0.25;0.25;;;11.80;99.90;;;;;;5149771;28;20036;-86
2022/08/02 04:35:49;;;;;;;0.20;0.20;;;11.70;99.90;;;;;;5149707;28;20088;-86
2022/08/02 04:38:16;;;;;;;0.20;0.20;;;11.80;99.90;;;;;;5149402;28;20396;-88
2022/08/02 04:40:54;;;;;;;0.10;0.05;;;11.80;99.90;;;;;;5148630;28;20032;-88
2022/08/02 04:43:22;;;;;;;0.03;0.03;;;11.90;99.90;;;;;;5131642;28;20047;-86
2022/08/02 04:45:52;;;;;;;0.15;0.15;;;11.90;99.90;;;;;;5148711;28;20048;-88
2022/08/02 04:48:19;;;;;;;0.22;0.22;;;11.90;99.90;;;;;;5132113;28;20124;-88
2022/08/02 04:50:46;;;;;;;0.13;0.10;;;11.90;99.90;;;;;;5132478;28;20039;-88
2022/08/02 04:53:13;;;;;;;0.47;0.28;;;11.90;99.90;;;;;;5149126;28;20130;-85
2022/08/02 04:55:39;;;;;;;0.20;0.20;;;12.00;99.90;;;;;;5148804;28;20130;-89
2022/08/02 04:58:06;;;;;;;0.28;0.28;;;12.00;99.90;;;;;;5132688;28;20043;-88
2022/08/02 05:00:33;;;;;;;0.15;0.10;;;12.00;99.90;;;;;;5148600;28;20032;-85
2022/08/02 05:03:00;;;;;;;0.30;0.30;;;12.10;99.90;;;;;;5148805;28;20040;-88
2022/08/02 05:05:27;;;;;;;0.10;0.10;;;12.20;99.90;;;;;;5148615;28;20073;-88
2022/08/02 05:07:54;;;;;;;0.30;0.20;;;12.20;99.90;;;;;;5131804;28;20043;-88
2022/08/02 05:10:21;;;;;;;0.35;0.30;;;12.30;99.90;;;;;;5149344;28;20035;-88
2022/08/02 05:12:48;;;;;;;0.20;0.20;;;12.30;99.90;;;;;;5131831;28;20090;-88
2022/08/02 05:15:17;;;;;;;0.10;0.10;;;12.40;99.90;;;;;;5148824;28;20071;-89
2022/08/02 05:17:45;;;;;;;0.10;0.10;;;12.40;99.90;;;;;;5148381;28;20763;-88
2022/08/02 05:20:12;;;;;;;0.15;0.15;;;12.40;99.90;;;;;;5131983;28;20059;-88
2022/08/02 05:22:43;;;;;;;0.13;0.13;;;12.50;99.90;;;;;;5131013;28;20741;-85
2022/08/02 05:25:10;;;;;;;0.47;0.25;;;12.50;99.90;;;;;;5162365;27;20043;-85
2022/08/02 05:27:37;;;;;;;0.10;0.10;;;12.50;99.90;;;;;;5147865;28;20047;-85
2022/08/02 05:30:04;;;;;;;0.15;0.15;;;12.70;99.90;;;;;;5131757;28;20047;-85
2022/08/02 05:32:31;;;;;;;0.63;0.22;;;12.70;99.90;;;;;;5148035;28;20039;-85
2022/08/02 05:35:00;;;;;;;0.20;0.20;;;12.70;99.90;;;;;;5148190;28;20408;-88
2022/08/02 05:37:27;;;;;;;0.10;0.10;;;12.80;99.90;;;;;;5165019;27;20050;-85
2022/08/02 05:39:54;;;;;;;0.40;0.30;;;12.80;99.90;;;;;;5165192;27;20039;-85
2022/08/02 05:42:21;;;;;;;0.17;0.13;;;12.90;99.90;;;;;;5131800;28;20039;-88
2022/08/02 05:44:47;;;;;;;0.20;0.20;;;13.00;99.90;;;;;;5147737;28;20047;-88
2022/08/02 05:47:14;;;;;;;0.10;0.10;;;13.00;99.90;;;;;;5130952;28;20143;-86
2022/08/02 05:49:41;;;;;;;0.20;0.20;;;13.10;99.90;;;;;;5130731;28;20035;-89
2022/08/02 05:52:17;;;;;;;0.68;0.30;;;13.10;99.90;;;;;;5131092;28;20051;-88
2022/08/02 05:54:53;;;;;;;0.15;0.15;;;13.20;99.90;;;;;;5147538;28;20674;-88
2022/08/02 05:57:31;;;;;;;0.22;0.20;;;13.30;99.90;;;;;;5165507;27;20040;-88
2022/08/02 06:00:08;;;;;;;0.55;0.40;;;13.40;99.90;;;;;;5147688;28;20758;-88
2022/08/02 06:02:41;;;;;;;0.10;0.10;;;13.40;99.90;;;;;;5130974;28;20040;-86
2022/08/02 06:05:10;;;;;;;1.27;0.30;;;13.50;99.90;;;;;;5164801;27;20397;-86
2022/08/02 06:07:40;;;;;;;0.20;0.20;;;13.60;99.90;;;;;;5130774;28;20092;-85
2022/08/02 06:10:08;;;;;;;0.28;0.28;;;13.60;99.90;;;;;;5130456;28;20039;-88
2022/08/02 06:12:49;;;;;;;0.20;0.20;;;13.70;99.90;;;;;;5130375;28;20047;-88
2022/08/02 06:15:18;;;;;;;0.30;0.30;;;13.80;99.90;;;;;;5165169;27;20094;-86
2022/08/02 06:17:46;;;;;;;0.10;0.10;;;13.80;99.90;;;;;;5147058;28;20039;-88
2022/08/02 06:20:14;;;;;;;0.13;0.13;;;13.90;99.90;;;;;;5147844;28;20107;-88
2022/08/02 06:22:42;;;;;;;0.08;0.08;;;14.00;99.90;;;;;;5130595;28;20043;-88
2022/08/02 06:25:14;;;;;;;0.30;0.22;;;14.10;99.90;;;;;;5130542;28;20040;-88
2022/08/02 06:27:41;;;;;;;0.50;0.22;;;14.20;99.90;;;;;;5147706;28;20408;-88
2022/08/02 06:30:09;;;;;;;0.40;0.38;;;14.40;99.90;;;;;;5147786;28;20052;-86
2022/08/02 06:32:36;;;;;;;0.10;0.10;;;14.50;99.90;;;;;;5147178;28;20042;-88
2022/08/02 06:35:04;;;;;;;0.20;0.20;;;14.60;99.90;;;;;;5147499;28;20039;-86
2022/08/02 06:38:00;;;;;;;0.25;0.25;;;14.80;99.90;;;;;;5147477;28;20388;-88
2022/08/02 06:40:48;;;;;;;0.30;0.25;;;14.90;99.90;;;;;;5147558;28;20043;-86
2022/08/02 06:43:54;;;;;;;0.63;0.35;;;15.10;99.90;;;;;;5130703;28;20100;-86
2022/08/02 06:46:21;;;;;;;0.35;0.30;;;15.20;99.90;;;;;;5130311;28;20128;-86
2022/08/02 06:48:48;;;;;;;0.47;0.28;;;15.40;99.90;;;;;;5146682;28;20039;-86
2022/08/02 06:51:14;;;;;;;0.25;0.20;;;15.50;99.90;;;;;;5147105;28;20036;-86
2022/08/02 06:53:41;;;;;;;0.17;0.17;;;15.60;99.90;;;;;;5163738;28;20036;-87
2022/08/02 06:56:08;;;;;;;0.80;0.50;;;15.70;99.90;;;;;;5130393;28;20044;-86
2022/08/02 06:58:35;;;;;;;0.15;0.10;;;15.80;99.90;;;;;;5130002;28;20061;-88
2022/08/02 07:01:05;;;;;;;0.22;0.22;;;15.90;99.90;;;;;;5129569;28;20120;-86
2022/08/02 07:03:37;;;;;;;0.30;0.30;;;15.90;99.90;;;;;;5146441;28;20530;-88
2022/08/02 07:06:05;;;;;;;0.10;0.10;;;16.00;99.90;;;;;;5147320;28;20046;-86
2022/08/02 07:08:32;;;;;;;0.10;0.10;;;16.10;99.90;;;;;;5133828;28;20039;-86
2022/08/02 07:11:00;;;;;;;0.20;0.20;;;16.10;99.90;;;;;;5150932;28;20051;-88
2022/08/02 07:13:29;;;;;;;0.60;0.22;;;16.20;99.90;;;;;;5150580;28;20503;-86
2022/08/02 07:15:56;;;;;;;0.40;0.25;;;16.30;99.90;;;;;;5133921;28;20036;-88
2022/08/02 07:18:24;;;;;;;0.20;0.20;;;16.40;99.90;;;;;;5134638;28;20047;-86
2022/08/02 07:20:51;;;;;;;0.10;0.10;;;16.50;99.90;;;;;;5130187;28;20040;-86
2022/08/02 07:23:18;;;;;;;1.38;0.40;;;16.60;99.90;;;;;;5130973;28;20044;-85
2022/08/02 07:25:46;;;;;;;0.57;0.45;;;16.80;99.90;;;;;;5113266;28;20044;-85
2022/08/02 07:28:14;;;;;;;0.25;0.20;;;16.90;99.90;;;;;;5113194;28;20044;-85
2022/08/02 07:30:42;;;;;;;0.40;0.32;;;17.10;99.90;;;;;;5113409;28;20044;-85
2022/08/02 07:33:08;;;;;;;0.20;0.20;;;17.20;99.90;;;;;;5113023;28;20048;-85
2022/08/02 07:35:36;;;;;;;0.35;0.35;;;17.40;99.90;;;;;;5113176;28;20039;-85
2022/08/02 07:38:02;;;;;;;0.32;0.28;;;17.50;99.90;;;;;;5113077;28;20040;-87
2022/08/02 07:40:29;;;;;;;0.20;0.20;;;17.60;99.90;;;;;;5147601;28;20416;-87
2022/08/02 07:42:56;;;;;;;0.32;0.22;;;17.70;99.90;;;;;;5112863;28;20038;-87
2022/08/02 07:45:24;;;;;;;0.47;0.30;;;17.70;99.90;;;;;;5113431;28;20040;-84
2022/08/02 07:47:51;;;;;;;0.17;0.17;;;17.80;99.90;;;;;;5115568;28;20052;-88
2022/08/02 07:50:20;;;;;;;0.20;0.20;;;17.90;99.90;;;;;;5117537;28;20683;-84
2022/08/02 07:52:47;;;;;;;0.65;0.40;;;18.00;99.90;;;;;;5132735;28;20047;-87
2022/08/02 07:55:16;;;;;;;0.30;0.20;;;18.20;99.90;;;;;;5133103;28;20403;-87
2022/08/02 07:57:44;;;;;;;0.20;0.20;;;18.20;99.90;;;;;;5133458;28;20480;-85
2022/08/02 08:00:11;;;;;;;0.10;0.10;;;18.30;99.90;;;;;;5116288;28;20043;-85
2022/08/02 08:02:38;;;;;;;0.85;0.55;;;18.40;99.90;;;;;;5116206;28;20113;-85
2022/08/02 08:05:05;;;;;;;0.30;0.20;;;18.60;99.90;;;;;;5149915;28;20044;-85
2022/08/02 08:07:33;;;;;;;0.20;0.20;;;18.80;99.90;;;;;;5150268;28;20101;-85
2022/08/02 08:10:00;;;;;;;0.22;0.17;;;18.90;99.90;;;;;;5132769;28;20035;-86
2022/08/02 08:12:27;;;;;;;0.55;0.38;;;19.10;99.90;;;;;;5149728;28;20497;-85
2022/08/02 08:14:54;;;;;;;0.03;0.03;;;19.20;99.90;;;;;;5149420;28;20039;-85
2022/08/02 08:17:21;;;;;;;0.20;0.10;;;19.30;99.90;;;;;;5150083;28;20066;-86
2022/08/02 08:19:47;;;;;;;0.20;0.20;;;19.40;99.90;;;;;;5132591;28;20043;-86
2022/08/02 08:22:14;;;;;;;0.25;0.25;;;19.50;99.90;;;;;;5149111;28;20176;-85
2022/08/02 08:24:41;;;;;;;0.10;0.10;;;19.70;99.90;;;;;;5132593;28;20071;-86
2022/08/02 08:27:13;;;;;;;0.30;0.30;;;19.80;99.90;;;;;;5132246;28;20044;-86
2022/08/02 08:29:41;;;;;;;0.13;0.13;;;19.90;99.90;;;;;;5149129;28;20040;-86
2022/08/02 08:32:08;;;;;;;0.22;0.20;;;20.00;99.90;;;;;;5132305;28;20043;-85
2022/08/02 08:34:35;;;;;;;0.38;0.30;;;20.10;99.90;;;;;;5149323;28;20039;-85
2022/08/02 08:37:02;;;;;;;0.20;0.20;;;20.20;99.90;;;;;;5149300;28;20046;-86
2022/08/02 08:39:29;;;;;;;0.20;0.20;;;20.30;99.90;;;;;;5149167;28;20144;-86
2022/08/02 08:41:56;;;;;;;0.70;0.20;;;20.40;99.90;;;;;;5131778;28;20075;-85
2022/08/02 08:44:23;;;;;;;0.20;0.20;;;20.50;99.90;;;;;;5166717;27;20039;-85
2022/08/02 08:46:51;;;;;;;3.40;0.32;;;20.60;99.90;;;;;;5148698;28;20496;-85
2022/08/02 08:49:30;;;;;;;0.20;0.20;;;20.70;99.90;;;;;;5131926;28;20039;-85
2022/08/02 08:52:03;;;;;;;0.20;0.20;;;20.80;99.90;;;;;;5165902;27;20071;-87
2022/08/02 08:54:31;;;;;;;0.10;0.10;;;20.90;99.90;;;;;;5132163;28;20043;-85
2022/08/02 08:56:59;;;;;;;0.10;0.10;;;21.00;99.90;;;;;;5131610;28;20035;-85
2022/08/02 08:59:26;;;;;;;0.10;0.10;;;21.20;99.90;;;;;;5132202;28;20458;-86
2022/08/02 09:01:54;;;;;;;0.28;0.17;;;21.20;99.90;;;;;;5131685;28;20130;-85
2022/08/02 09:04:21;;;;;;;0.30;0.30;;;21.40;99.90;;;;;;5148778;28;20585;-85
2022/08/02 09:06:48;;;;;;;0.10;0.10;;;21.50;99.90;;;;;;5148549;28;20092;-86
2022/08/02 09:09:15;;;;;;;0.22;0.22;;;21.50;99.90;;;;;;5165080;27;20047;-84
2022/08/02 09:11:42;;;;;;;0.20;0.20;;;21.50;99.90;;;;;;5131456;28;20051;-85
2022/08/02 09:14:09;;;;;;;0.38;0.28;;;21.60;99.90;;;;;;5130941;28;20032;-85
2022/08/02 09:16:40;;;;;;;0.13;0.13;;;21.70;99.90;;;;;;5131435;28;20035;-84
2022/08/02 09:19:24;;;;;;;0.60;0.22;;;21.80;99.90;;;;;;5131177;28;20492;-85
2022/08/02 09:21:59;;;;;;;0.28;0.28;;;21.90;99.90;;;;;;5148227;28;20453;-85
2022/08/02 09:24:29;;;;;;;0.10;0.10;;;22.00;99.90;;;;;;5131199;28;20036;-85
2022/08/02 09:26:55;;;;;;;0.20;0.20;;;22.00;99.90;;;;;;5147575;28;20382;-85
2022/08/02 09:29:23;;;;;;;0.25;0.20;;;22.00;99.90;;;;;;5147314;28;20042;-85
2022/08/02 09:31:51;;;;;;;0.20;0.20;;;22.10;99.90;;;;;;5164403;27;20353;-85
2022/08/02 09:34:17;;;;;;;0.20;0.20;;;22.20;99.90;;;;;;5164447;27;20122;-85
2022/08/02 09:36:46;;;;;;;0.32;0.25;;;22.30;99.40;;;;;;5130753;28;20118;-85
2022/08/02 09:39:15;;;;;;;0.17;0.10;;;22.40;99.00;;;;;;5164955;27;20050;-86
2022/08/02 09:41:44;;;;;;;0.10;0.10;;;22.60;99.90;;;;;;5147783;28;20081;-85
2022/08/02 09:44:14;;;;;;;0.10;0.10;;;22.50;97.70;;;;;;5130310;28;20062;-85
2022/08/02 09:46:43;;;;;;;0.20;0.20;;;22.80;99.90;;;;;;5130368;28;20058;-85
2022/08/02 09:49:15;;;;;;;0.10;0.10;;;22.90;99.90;;;;;;5147438;28;20079;-85
2022/08/02 09:51:48;;;;;;;0.10;0.10;;;23.10;99.90;;;;;;5130769;28;20043;-85
2022/08/02 09:54:18;;;;;;;0.10;0.10;;;23.30;99.90;;;;;;5164808;27;20172;-85
2022/08/02 09:56:48;;;;;;;0.43;0.30;;;23.50;99.90;;;;;;5130834;28;20043;-85
2022/08/02 09:59:17;;;;;;;0.10;0.10;;;23.70;99.90;;;;;;5164562;27;20092;-85
2022/08/02 10:01:46;;;;;;;0.20;0.20;;;23.90;99.90;;;;;;5130646;28;20404;-85
2022/08/02 10:04:14;;;;;;;0.20;0.20;;;24.10;99.90;;;;;;5130316;28;20081;-85
2022/08/02 10:06:45;;;;;;;0.25;0.20;;;24.10;98.90;;;;;;5130111;28;20180;-85
2022/08/02 10:09:12;;;;;;;1.88;0.30;;;24.20;99.00;;;;;;5146627;28;20147;-86
2022/08/02 10:11:39;;;;;;;0.20;0.20;;;24.20;99.50;;;;;;5164512;27;20527;-86
2022/08/02 10:14:08;;;;;;;0.30;0.20;;;24.10;99.20;;;;;;5135666;28;20027;-85
2022/08/02 10:16:41;;;;;;;0.20;0.20;;;23.90;99.90;;;;;;5147768;28;20122;-86
2022/08/02 10:19:09;;;;;;;0.20;0.20;;;23.80;97.80;;;;;;5146179;28;20118;-84
2022/08/02 10:21:55;;;;;;;0.30;0.30;;;23.60;99.90;;;;;;5130607;28;20131;-86
2022/08/02 10:24:27;;;;;;;0.20;0.20;;;23.50;99.90;;;;;;5146850;28;20519;-85
2022/08/02 10:26:54;;;;;;;0.20;0.20;;;23.60;99.90;;;;;;5147613;28;20065;-85
2022/08/02 10:29:38;;;;;;;0.57;0.35;;;23.80;99.00;;;;;;5146982;28;20047;-85
2022/08/02 10:32:29;;;;;;;0.20;0.20;;;23.90;99.30;;;;;;5130143;28;20096;-86
2022/08/02 10:35:08;;;;;;;0.73;0.40;;;24.00;99.60;;;;;;5130370;28;20039;-86
2022/08/02 10:37:38;;;;;;;0.20;0.20;;;24.10;99.30;;;;;;5131018;28;20035;-87
2022/08/02 10:40:21;;;;;;;0.43;0.25;;;24.20;99.90;;;;;;5130006;28;20043;-87
2022/08/02 10:42:50;;;;;;;0.60;0.40;;;24.10;99.90;;;;;;5144370;28;20043;-86
2022/08/02 10:45:20;;;;;;;0.82;0.30;;;24.10;99.90;;;;;;5146412;28;20044;-86
2022/08/02 10:47:59;;;;;;;0.60;0.28;;;24.20;99.90;;;;;;5146349;28;20055;-86
2022/08/02 10:50:45;;;;;;;0.40;0.40;;;24.30;99.90;;;;;;5146416;28;20054;-86
2022/08/02 10:53:27;;;;;;;0.30;0.28;;;24.50;99.90;;;;;;5164145;28;20050;-86
2022/08/02 10:55:57;;;;;;;0.90;0.30;;;24.60;99.90;;;;;;5130118;28;20477;-86
2022/08/02 10:58:27;;;;;;;0.20;0.20;;;24.70;99.90;;;;;;5129663;28;20050;-86
2022/08/02 11:00:53;;;;;;;0.38;0.35;;;24.80;99.30;;;;;;5130016;28;20063;-86
2022/08/02 11:03:40;;;;;;;0.20;0.20;;;24.90;99.90;;;;;;5146665;28;20577;-86
2022/08/02 11:06:08;;;;;;;0.30;0.30;;;25.10;99.90;;;;;;5146980;28;20051;-86
2022/08/02 11:08:35;;;;;;;0.40;0.40;;;25.30;99.90;;;;;;5129338;28;20036;-86
2022/08/02 11:11:08;;;;;;;0.30;0.28;;;25.30;99.90;;;;;;5129469;28;20047;-86
2022/08/02 11:14:07;;;;;;;0.57;0.38;;;25.50;99.90;;;;;;5163401;28;20036;-86
2022/08/02 11:16:56;;;;;;;0.40;0.40;;;25.50;98.80;;;;;;5129279;28;20093;-86
2022/08/02 11:19:24;;;;;;;0.32;0.30;;;25.50;99.00;;;;;;5163469;28;20036;-86
2022/08/02 11:22:10;;;;;;;0.20;0.20;;;25.60;99.80;;;;;;5129659;28;20063;-87
2022/08/02 11:24:39;;;;;;;0.30;0.30;;;25.70;98.80;;;;;;5146129;28;20085;-86
2022/08/02 11:27:08;;;;;;;0.30;0.30;;;25.90;99.90;;;;;;5129425;28;20043;-86
2022/08/02 11:29:40;;;;;;;0.20;0.20;;;25.90;99.90;;;;;;5129297;28;20046;-86
2022/08/02 11:32:16;;;;;;;0.30;0.30;;;26.10;99.90;;;;;;5129375;28;20051;-86
2022/08/02 11:34:45;;;;;;;0.80;0.57;;;25.90;98.80;;;;;;5129306;28;20082;-86
2022/08/02 11:37:12;;;;;;;3.33;0.40;;;26.00;99.90;;;;;;5129403;28;20043;-86
2022/08/02 11:39:39;;;;;;;0.47;0.40;;;26.00;99.60;;;;;;5129111;28;20126;-86
2022/08/02 11:42:06;;;;;;;0.32;0.32;;;26.00;99.50;;;;;;5146297;28;20092;-86
2022/08/02 11:44:39;;;;;;;0.55;0.40;;;26.10;99.10;;;;;;5128897;28;20403;-87
2022/08/02 11:47:09;;;;;;;0.60;0.40;;;26.00;99.90;;;;;;5146114;28;20139;-86
2022/08/02 11:49:36;;;;;;;0.88;0.50;;;26.00;99.00;;;;;;5128863;28;20134;-86
2022/08/02 11:52:09;;;;;;;0.57;0.40;;;26.00;99.70;;;;;;5128862;28;20048;-86
2022/08/02 11:54:40;;;;;;;1.42;0.40;;;26.00;99.90;;;;;;5148671;28;20051;-86
2022/08/02 11:57:08;;;;;;;0.30;0.30;;;26.10;99.80;;;;;;5112761;28;20044;-86
2022/08/02 11:59:39;;;;;;;1.02;0.50;;;26.00;98.90;;;;;;5129370;28;20042;-86
2022/08/02 12:02:07;;;;;;;0.57;0.40;;;26.00;99.70;;;;;;5112531;28;20040;-86
2022/08/02 12:04:37;;;;;;;0.50;0.45;;;26.10;99.90;;;;;;5110227;28;20031;-86
2022/08/02 12:07:05;;;;;;;0.35;0.32;;;26.10;99.90;;;;;;5116330;28;20097;-86
2022/08/02 12:09:34;;;;;;;0.55;0.45;;;26.00;99.50;;;;;;5132502;28;20046;-86
2022/08/02 12:12:02;;;;;;;1.15;0.60;;;26.20;99.90;;;;;;5133005;28;20555;-86
2022/08/02 12:14:30;;;;;;;0.40;0.40;;;26.40;99.90;;;;;;5099098;28;20031;-86
2022/08/02 12:19:43;;;;;;;1.65;0.65;;;26.60;99.90;;;;;;5120305;28;20043;-86
2022/08/02 12:22:17;;;;;;;0.35;0.35;;;26.50;99.80;;;;;;5115252;28;20605;-86
2022/08/02 12:24:53;;;;;;;1.02;0.47;;;26.30;98.60;;;;;;5131968;28;20040;-86
2022/08/02 12:27:34;;;;;;;0.38;0.35;;;26.30;99.50;;;;;;5132185;28;20043;-86
2022/08/02 12:30:15;;;;;;;0.28;0.28;;;26.20;98.40;;;;;;5166585;27;20031;-86
2022/08/02 12:32:43;;;;;;;0.47;0.30;;;26.10;98.40;;;;;;5132109;28;20059;-86
2022/08/02 12:35:15;;;;;;;0.30;0.30;;;26.20;99.60;;;;;;5148998;28;20038;-86
2022/08/02 12:37:46;;;;;;;0.30;0.30;;;26.10;98.60;;;;;;5131631;28;20575;-85
2022/08/02 12:40:30;;;;;;;0.43;0.32;;;26.20;99.50;;;;;;5132159;28;20047;-85
2022/08/02 12:43:02;;;;;;;0.73;0.40;;;26.40;99.90;;;;;;5131448;28;20134;-86
2022/08/02 12:45:48;;;;;;;0.35;0.35;;;26.30;99.80;;;;;;5131700;28;20524;-86
2022/08/02 12:48:29;;;;;;;0.55;0.30;;;26.30;99.90;;;;;;5131599;28;20411;-86
2022/08/02 12:50:56;;;;;;;0.25;0.25;;;26.20;99.70;;;;;;5148514;28;20104;-85
2022/08/02 12:53:31;;;;;;;0.30;0.30;;;26.10;99.30;;;;;;5166020;27;20043;-85
2022/08/02 12:55:58;;;;;;;;;;;26.10;99.90;;;;;;5149125;28;20045;-86
2022/08/02 12:58:25;;;;;;;0.40;0.32;;;26.00;99.10;;;;;;5115035;28;19992;-85
2022/08/02 13:01:00;;;;;;;0.40;0.30;;;26.00;99.90;;;;;;5131586;28;20040;-85
2022/08/02 13:03:27;;;;;;;2.00;0.40;;;26.10;99.90;;;;;;5131639;28;20488;-86
2022/08/02 13:05:54;;;;;;;0.30;0.30;;;26.30;99.90;;;;;;5148462;28;20040;-85
2022/08/02 13:08:20;;;;;;;0.40;0.40;;;26.50;99.90;;;;;;5131247;28;20559;-85